SBOSBO BJV / LTFE
Speedbird OnlineSpeedbird Online BJV / LTFE

Milas Bodrum International Airport
10:02 22°C

Location Bodrum, Turkey
Latitude: 37.25059890749999
Longitude: 27.6643009186
Web Wikipedia
Altitude 6 Meter / 21 Feet
Distance 2,676 KM / 1,663 Miles
from London.
Time Zone UTC +3 hours (Europe/Istanbul)
Codes IATA: BJV
ICAO: LTFE
Currency £1 equals TRY 21.04
Runways
RunwayLength (m)Surface
10L3000Concrete
10R2940Concrete
28L2940Concrete
28R3000Concrete
Radio
TypeDescriptionFrequency
APPMENDERES APP119.5
APPMENDERES APP119.775
ATISATIS128.5
GNDGND121.95
TWRTWR120.5
Live ATC
METAR LTFE 060620Z 08003KT 360V120 CAVOK 22/05 Q1016 NOSIG RMK RWY10 07006KT 350V130
TAF TAF LTFE 060440Z 0606/0706 VRB02KT CAVOK BECMG 0607/0610 28012KT BECMG 0612/0614 36013KT FEW035 SCT100 BECMG 0616/0618 VRB02KT
Weather As Of 06 Oct 2022 10:02
Description Clear sky
Wind 6 km/h from East (80°)
Cloud Cover 0%
Precipitation Rain: none, Snow: none
Sunrise 07:08
Sunset 18:46
Lounges TAV Comfort Lounge, International Terminal
Rotations During the last 90 days there were
13 flights from LHR
13 flights to LHR


© 2017-2022 Speedbird Online